createdAt,value
2022-08-17T00:01:31.464Z,16.91
2022-08-17T00:04:19.406Z,16.87
2022-08-17T00:06:49.040Z,16.83
2022-08-17T00:09:18.943Z,16.81
2022-08-17T00:12:40.764Z,16.81
2022-08-17T00:14:34.902Z,16.76
2022-08-17T00:17:03.731Z,16.73
2022-08-17T00:19:32.488Z,16.71
2022-08-17T00:22:31.288Z,16.70
2022-08-17T00:24:47.580Z,16.67
2022-08-17T00:27:14.216Z,16.64
2022-08-17T00:29:41.149Z,16.59
2022-08-17T00:33:12.433Z,16.56
2022-08-17T00:34:55.050Z,16.57
2022-08-17T00:37:21.695Z,16.55
2022-08-17T00:39:48.370Z,16.53
2022-08-17T00:42:16.643Z,16.56
2022-08-17T00:44:43.234Z,16.51
2022-08-17T00:47:09.941Z,16.48
2022-08-17T00:49:36.557Z,16.48
2022-08-17T00:52:11.654Z,16.39
2022-08-17T00:54:42.024Z,16.32
2022-08-17T00:57:11.982Z,16.31
2022-08-17T00:59:41.585Z,16.29
2022-08-17T01:02:10.030Z,16.27
2022-08-17T01:04:36.842Z,16.27
2022-08-17T01:07:04.007Z,16.26
2022-08-17T01:09:31.980Z,16.32
2022-08-17T01:11:58.632Z,16.26
2022-08-17T01:14:26.278Z,16.21
2022-08-17T01:16:54.832Z,16.18
2022-08-17T01:19:28.748Z,16.16
2022-08-17T01:22:03.955Z,16.13
2022-08-17T01:24:31.278Z,16.10
2022-08-17T01:27:00.620Z,16.08
2022-08-17T01:29:30.784Z,16.07
2022-08-17T01:32:04.217Z,16.03
2022-08-17T01:34:42.745Z,16.01
2022-08-17T01:37:12.094Z,15.99
2022-08-17T01:39:47.529Z,15.98
2022-08-17T01:42:24.981Z,15.95
2022-08-17T01:44:56.222Z,15.94
2022-08-17T01:47:23.633Z,15.91
2022-08-17T01:49:50.861Z,15.87
2022-08-17T01:52:17.822Z,15.85
2022-08-17T01:54:47.359Z,15.84
2022-08-17T01:57:14.600Z,15.80
2022-08-17T01:59:41.208Z,15.77
2022-08-17T02:02:08.734Z,15.75
2022-08-17T02:04:35.358Z,15.76
2022-08-17T02:07:02.002Z,15.73
2022-08-17T02:09:30.124Z,15.71
2022-08-17T02:11:59.439Z,15.70
2022-08-17T02:14:26.619Z,15.70
2022-08-17T02:16:53.836Z,15.69
2022-08-17T02:19:20.498Z,15.70
2022-08-17T02:21:49.594Z,15.70
2022-08-17T02:24:59.963Z,15.62
2022-08-17T02:27:13.528Z,15.53
2022-08-17T02:29:40.140Z,15.46
2022-08-17T02:32:07.013Z,15.45
2022-08-17T02:34:33.898Z,15.43
2022-08-17T02:37:00.520Z,15.42
2022-08-17T02:39:27.234Z,15.40
2022-08-17T02:42:01.017Z,15.37
2022-08-17T02:44:39.826Z,15.34
2022-08-17T02:47:08.374Z,15.31
2022-08-17T02:49:37.261Z,15.30
2022-08-17T02:52:06.687Z,15.31
2022-08-17T02:54:40.415Z,15.30
2022-08-17T02:57:08.927Z,15.29
2022-08-17T02:59:35.589Z,15.25
2022-08-17T03:02:10.430Z,15.22
2022-08-17T03:04:37.960Z,15.18
2022-08-17T03:07:05.445Z,15.15
2022-08-17T03:09:32.270Z,15.14
2022-08-17T03:12:12.948Z,15.15
2022-08-17T03:14:41.660Z,15.12
2022-08-17T03:17:17.077Z,15.10
2022-08-17T03:19:44.571Z,15.07
2022-08-17T03:22:36.445Z,15.05
2022-08-17T03:24:59.705Z,15.07
2022-08-17T03:27:26.376Z,15.08
2022-08-17T03:29:53.355Z,15.08
2022-08-17T03:32:20.902Z,15.05
2022-08-17T03:34:47.794Z,15.00
2022-08-17T03:37:14.816Z,14.97
2022-08-17T03:39:41.628Z,14.93
2022-08-17T03:42:32.513Z,14.92
2022-08-17T03:45:00.310Z,14.92
2022-08-17T03:47:45.677Z,14.91
2022-08-17T03:50:31.899Z,14.92
2022-08-17T03:53:17.229Z,14.91
2022-08-17T03:56:02.485Z,14.90
2022-08-17T03:58:29.178Z,14.87
2022-08-17T04:00:56.138Z,14.87
2022-08-17T04:03:22.763Z,14.87
2022-08-17T04:05:49.512Z,14.89
2022-08-17T04:08:16.178Z,14.89
2022-08-17T04:10:44.989Z,14.90
2022-08-17T04:13:12.360Z,14.92
2022-08-17T04:15:42.655Z,14.95
2022-08-17T04:18:10.921Z,14.93
2022-08-17T04:20:37.893Z,14.93
2022-08-17T04:23:11.908Z,14.92
2022-08-17T04:25:41.616Z,14.95
2022-08-17T04:28:14.617Z,14.99
2022-08-17T04:30:45.264Z,15.01
2022-08-17T04:33:15.143Z,15.04
2022-08-17T04:35:45.604Z,15.05
2022-08-17T04:38:19.084Z,15.07
2022-08-17T04:41:04.290Z,15.08
2022-08-17T04:43:32.458Z,15.09
2022-08-17T04:46:01.910Z,15.15
2022-08-17T04:48:36.551Z,15.28
2022-08-17T04:51:07.471Z,15.39
2022-08-17T04:53:34.125Z,15.45
2022-08-17T04:56:00.744Z,15.53
2022-08-17T04:58:27.464Z,15.59
2022-08-17T05:00:54.111Z,15.65
2022-08-17T05:03:20.745Z,15.72
2022-08-17T05:05:49.684Z,15.82
2022-08-17T05:08:18.609Z,15.92
2022-08-17T05:10:45.814Z,16.00
2022-08-17T05:13:15.922Z,16.09
2022-08-17T05:15:45.334Z,16.04
2022-08-17T05:18:15.988Z,16.11
2022-08-17T05:20:42.824Z,16.20
2022-08-17T05:23:12.537Z,16.23
2022-08-17T05:25:47.636Z,16.28
2022-08-17T05:28:18.687Z,16.36
2022-08-17T05:30:50.211Z,16.40
2022-08-17T05:33:19.352Z,16.55
2022-08-17T05:35:49.022Z,16.76
2022-08-17T05:38:18.170Z,16.84
2022-08-17T05:40:45.059Z,16.88
2022-08-17T05:43:22.091Z,16.92
2022-08-17T05:46:04.138Z,16.95
2022-08-17T05:48:40.281Z,16.96
2022-08-17T05:51:16.510Z,17.01
2022-08-17T05:54:15.520Z,17.10
2022-08-17T05:57:16.135Z,17.42
2022-08-17T06:00:05.674Z,18.44
2022-08-17T06:02:54.778Z,18.77
2022-08-17T06:06:06.472Z,19.05
2022-08-17T06:08:45.517Z,19.18
2022-08-17T06:11:32.509Z,19.29
2022-08-17T06:14:20.825Z,19.34
2022-08-17T06:16:50.865Z,19.57
2022-08-17T06:19:31.011Z,19.80
2022-08-17T06:21:58.568Z,20.23
2022-08-17T06:24:34.150Z,21.49
2022-08-17T06:27:37.424Z,22.92
2022-08-17T06:30:25.662Z,23.85
2022-08-17T06:32:53.729Z,24.72
2022-08-17T06:35:42.328Z,25.76
2022-08-17T06:38:37.119Z,26.37
2022-08-17T06:41:23.354Z,26.54
2022-08-17T06:44:43.390Z,26.41
2022-08-17T06:47:13.525Z,26.54
2022-08-17T06:49:49.542Z,26.44
2022-08-17T06:52:45.241Z,26.00
2022-08-17T06:55:21.437Z,25.80
2022-08-17T06:57:52.223Z,25.68
2022-08-17T07:00:25.208Z,25.66
2022-08-17T07:03:21.284Z,25.78
2022-08-17T07:05:51.694Z,25.99
2022-08-17T07:08:38.127Z,26.10
2022-08-17T07:11:13.081Z,26.31
2022-08-17T07:13:57.403Z,26.54
2022-08-17T07:16:41.107Z,26.74
2022-08-17T07:19:08.222Z,27.21
2022-08-17T07:21:51.672Z,27.66
2022-08-17T07:24:59.632Z,28.12
2022-08-17T07:27:30.980Z,28.29
2022-08-17T07:30:09.536Z,28.45
2022-08-17T07:32:41.586Z,28.78
2022-08-17T07:35:18.459Z,29.18
2022-08-17T07:37:55.553Z,29.26
2022-08-17T07:40:28.153Z,29.17
2022-08-17T07:43:21.912Z,28.98
2022-08-17T07:46:30.220Z,28.61
2022-08-17T07:49:16.276Z,28.65
2022-08-17T07:51:42.790Z,28.83
2022-08-17T07:54:14.798Z,29.00
2022-08-17T07:56:46.368Z,29.31
2022-08-17T07:59:23.535Z,29.68
2022-08-17T08:01:57.660Z,29.75
2022-08-17T08:05:00.277Z,29.78
2022-08-17T08:07:20.912Z,29.79
2022-08-17T08:10:06.562Z,29.91
2022-08-17T08:12:39.464Z,30.02
2022-08-17T08:15:13.081Z,30.03
2022-08-17T08:17:58.101Z,29.91
2022-08-17T08:20:51.106Z,29.91
2022-08-17T08:23:42.285Z,29.79
2022-08-17T08:26:18.451Z,29.89
2022-08-17T08:29:12.554Z,29.66
2022-08-17T08:32:07.738Z,29.90
2022-08-17T08:34:53.255Z,30.13
2022-08-17T08:37:53.470Z,30.10
2022-08-17T08:40:32.227Z,30.10
2022-08-17T08:43:18.366Z,30.21
2022-08-17T08:46:16.224Z,30.29
2022-08-17T08:49:14.597Z,30.43
2022-08-17T08:51:47.126Z,30.64
2022-08-17T08:54:28.696Z,30.79
2022-08-17T08:57:24.473Z,31.03
2022-08-17T08:59:58.199Z,31.19
2022-08-17T09:02:35.172Z,31.28
2022-08-17T09:05:20.620Z,31.37
2022-08-17T09:08:11.095Z,31.46
2022-08-17T09:11:05.227Z,31.79
2022-08-17T09:13:40.983Z,32.03
2022-08-17T09:17:06.516Z,32.18
2022-08-17T09:19:45.339Z,32.30
2022-08-17T09:22:26.231Z,32.11
2022-08-17T09:25:03.172Z,32.41
2022-08-17T09:28:06.018Z,32.62
2022-08-17T09:30:52.463Z,32.48
2022-08-17T09:33:23.160Z,31.77
2022-08-17T09:35:54.277Z,31.43
2022-08-17T09:38:49.814Z,31.07
2022-08-17T09:41:34.610Z,30.92
2022-08-17T09:44:13.521Z,31.25
2022-08-17T09:47:19.536Z,31.92
2022-08-17T09:49:52.571Z,31.64
2022-08-17T09:52:22.567Z,31.66
2022-08-17T09:54:51.431Z,32.03
2022-08-17T09:57:31.496Z,32.21
2022-08-17T10:00:16.453Z,31.83
2022-08-17T10:03:09.677Z,31.53
2022-08-17T10:05:47.244Z,31.23
2022-08-17T10:08:35.592Z,30.63
2022-08-17T10:11:09.902Z,30.38
2022-08-17T10:13:59.609Z,29.96
2022-08-17T10:16:51.116Z,29.67
2022-08-17T10:19:39.926Z,29.53
2022-08-17T10:22:41.163Z,29.49
2022-08-17T10:25:48.555Z,29.72
2022-08-17T10:28:20.992Z,29.71
2022-08-17T10:31:05.459Z,29.73
2022-08-17T10:34:01.916Z,30.37
2022-08-17T10:36:50.007Z,30.69
2022-08-17T10:39:30.653Z,30.58
2022-08-17T10:42:03.766Z,30.63
2022-08-17T10:44:42.396Z,30.50
2022-08-17T10:47:15.790Z,30.35
2022-08-17T10:49:54.034Z,30.45
2022-08-17T10:52:21.748Z,30.45
2022-08-17T10:55:06.268Z,30.44
2022-08-17T10:57:39.058Z,30.36
2022-08-17T11:00:14.803Z,30.40
2022-08-17T11:02:50.967Z,30.44
2022-08-17T11:05:46.654Z,30.60
2022-08-17T11:08:31.370Z,30.47
2022-08-17T11:11:35.911Z,30.42
2022-08-17T11:14:25.906Z,30.43
2022-08-17T11:17:15.181Z,30.53
2022-08-17T11:19:48.934Z,30.75
2022-08-17T11:22:33.994Z,30.98
2022-08-17T11:25:16.638Z,31.38
2022-08-17T11:27:44.558Z,31.91
2022-08-17T11:30:33.121Z,32.08
2022-08-17T11:33:00.464Z,32.21
2022-08-17T11:35:38.619Z,31.79
2022-08-17T11:38:28.494Z,31.43
2022-08-17T11:41:10.485Z,31.25
2022-08-17T11:43:59.335Z,30.85
2022-08-17T11:47:07.565Z,30.79
2022-08-17T11:50:17.346Z,30.50
2022-08-17T11:52:46.914Z,30.40
2022-08-17T11:55:40.727Z,30.35
2022-08-17T11:58:29.305Z,30.24
2022-08-17T12:00:58.241Z,30.18
2022-08-17T12:03:31.869Z,29.98
2022-08-17T12:06:19.944Z,30.13
2022-08-17T12:08:55.323Z,30.22
2022-08-17T12:11:55.461Z,30.71
2022-08-17T12:14:51.340Z,31.10
2022-08-17T12:17:34.720Z,31.06
2022-08-17T12:20:21.452Z,30.89
2022-08-17T12:23:06.955Z,30.94
2022-08-17T12:25:36.439Z,30.91
2022-08-17T12:28:06.605Z,30.85
2022-08-17T12:30:34.927Z,30.78
2022-08-17T12:33:01.748Z,30.65
2022-08-17T12:35:35.183Z,30.61
2022-08-17T12:38:02.935Z,30.48
2022-08-17T12:40:31.585Z,30.27
2022-08-17T12:43:04.161Z,30.21
2022-08-17T12:45:39.661Z,30.19
2022-08-17T12:48:10.302Z,30.11
2022-08-17T12:50:39.492Z,30.08
2022-08-17T12:53:12.370Z,30.13
2022-08-17T12:55:40.643Z,30.05
2022-08-17T12:58:14.494Z,30.11
2022-08-17T13:00:48.577Z,30.20
2022-08-17T13:03:19.465Z,30.23
2022-08-17T13:05:52.193Z,30.24
2022-08-17T13:08:32.036Z,30.24
2022-08-17T13:10:59.947Z,30.18
2022-08-17T13:13:29.901Z,30.27
2022-08-17T13:16:14.326Z,30.41
2022-08-17T13:19:04.911Z,30.48
2022-08-17T13:21:33.243Z,30.60
2022-08-17T13:24:19.644Z,30.73
2022-08-17T13:26:49.087Z,30.88
2022-08-17T13:29:21.871Z,31.28
2022-08-17T13:31:52.872Z,31.73
2022-08-17T13:34:29.348Z,32.29
2022-08-17T13:37:17.836Z,32.65
2022-08-17T13:39:47.471Z,32.84
2022-08-17T13:42:33.136Z,32.91
2022-08-17T13:45:00.921Z,32.85
2022-08-17T13:47:28.094Z,32.69
2022-08-17T13:49:57.933Z,32.86
2022-08-17T13:52:39.793Z,33.24
2022-08-17T13:55:16.557Z,33.14
2022-08-17T13:57:48.666Z,32.75
2022-08-17T14:00:30.664Z,32.87
2022-08-17T14:02:58.326Z,32.97
2022-08-17T14:05:25.579Z,32.96
2022-08-17T14:08:02.140Z,32.44
2022-08-17T14:10:35.804Z,32.60
2022-08-17T14:13:03.420Z,32.56
2022-08-17T14:15:55.316Z,32.49
2022-08-17T14:18:34.257Z,32.20
2022-08-17T14:21:08.411Z,32.06
2022-08-17T14:23:35.851Z,32.12
2022-08-17T14:26:02.648Z,32.02
2022-08-17T14:28:29.379Z,31.82
2022-08-17T14:30:56.238Z,31.90
2022-08-17T14:33:24.729Z,32.02
2022-08-17T14:35:54.814Z,31.84
2022-08-17T14:38:21.474Z,31.80
2022-08-17T14:40:48.354Z,31.62
2022-08-17T14:43:15.834Z,31.38
2022-08-17T14:45:43.108Z,31.29
2022-08-17T14:48:10.111Z,31.17
2022-08-17T14:50:40.927Z,31.16
2022-08-17T14:53:10.835Z,31.03
2022-08-17T14:55:39.906Z,30.92
2022-08-17T14:58:07.601Z,30.74
2022-08-17T15:00:34.745Z,30.63
2022-08-17T15:03:02.437Z,30.72
2022-08-17T15:05:32.370Z,30.70
2022-08-17T15:08:01.088Z,30.79
2022-08-17T15:10:29.321Z,30.91
2022-08-17T15:12:56.274Z,30.90
2022-08-17T15:15:23.190Z,30.94
2022-08-17T15:17:51.630Z,31.02
2022-08-17T15:20:25.040Z,31.03
2022-08-17T15:22:55.640Z,31.07
2022-08-17T15:25:23.723Z,30.98
2022-08-17T15:27:50.638Z,30.91
2022-08-17T15:30:17.645Z,30.77
2022-08-17T15:32:48.199Z,30.73
2022-08-17T15:35:26.882Z,30.60
2022-08-17T15:38:04.652Z,30.46
2022-08-17T15:40:34.963Z,30.42
2022-08-17T15:43:09.246Z,30.36
2022-08-17T15:45:35.926Z,30.20
2022-08-17T15:48:02.626Z,30.06
2022-08-17T15:50:29.389Z,29.91
2022-08-17T15:52:58.002Z,29.86
2022-08-17T15:55:27.182Z,29.68
2022-08-17T15:57:53.908Z,29.61
2022-08-17T16:00:23.611Z,29.50
2022-08-17T16:03:44.866Z,29.33
2022-08-17T16:05:37.181Z,29.12
2022-08-17T16:08:04.306Z,28.97
2022-08-17T16:10:35.639Z,28.78
2022-08-17T16:13:03.464Z,28.75
2022-08-17T16:15:31.882Z,28.63
2022-08-17T16:17:59.430Z,28.50
2022-08-17T16:20:26.671Z,28.49
2022-08-17T16:22:54.455Z,28.48
2022-08-17T16:25:38.794Z,28.41
2022-08-17T16:28:16.508Z,28.43
2022-08-17T16:30:43.463Z,28.34
2022-08-17T16:33:11.730Z,28.28
2022-08-17T16:35:38.913Z,28.24
2022-08-17T16:38:07.123Z,28.29
2022-08-17T16:40:36.153Z,28.11
2022-08-17T16:43:04.385Z,28.03
2022-08-17T16:45:36.696Z,27.87
2022-08-17T16:48:03.967Z,27.75
2022-08-17T16:50:32.009Z,27.68
2022-08-17T16:53:17.268Z,27.67
2022-08-17T16:55:45.174Z,27.65
2022-08-17T16:58:11.974Z,27.55
2022-08-17T17:00:39.434Z,27.46
2022-08-17T17:03:19.355Z,27.42
2022-08-17T17:06:13.709Z,27.32
2022-08-17T17:08:49.570Z,27.28
2022-08-17T17:11:23.329Z,27.26
2022-08-17T17:13:56.583Z,27.24
2022-08-17T17:16:46.733Z,27.17
2022-08-17T17:19:34.463Z,27.11
2022-08-17T17:22:16.320Z,26.99
2022-08-17T17:25:29.092Z,26.93
2022-08-17T17:28:14.621Z,26.78
2022-08-17T17:30:56.951Z,26.80
2022-08-17T17:33:40.383Z,26.67
2022-08-17T17:36:27.814Z,26.73
2022-08-17T17:39:00.073Z,26.73
2022-08-17T17:41:34.313Z,26.61
2022-08-17T17:44:05.806Z,26.56
2022-08-17T17:46:38.570Z,26.45
2022-08-17T17:49:06.224Z,26.52
2022-08-17T17:52:06.807Z,26.46
2022-08-17T17:55:02.920Z,26.29
2022-08-17T17:58:07.159Z,26.16
2022-08-17T18:00:42.623Z,26.04
2022-08-17T18:03:24.818Z,25.92
2022-08-17T18:06:02.348Z,25.85
2022-08-17T18:08:34.700Z,25.77
2022-08-17T18:11:34.783Z,25.78
2022-08-17T18:14:22.035Z,25.61
2022-08-17T18:16:54.798Z,25.42
2022-08-17T18:19:28.252Z,25.33
2022-08-17T18:22:06.733Z,25.22
2022-08-17T18:24:43.576Z,25.11
2022-08-17T18:27:29.718Z,25.05
2022-08-17T18:30:03.373Z,24.94
2022-08-17T18:32:43.768Z,24.92
2022-08-17T18:35:18.771Z,24.85
2022-08-17T18:37:48.904Z,24.72
2022-08-17T18:40:19.512Z,24.61
2022-08-17T18:43:07.414Z,24.47
2022-08-17T18:45:34.024Z,24.38
2022-08-17T18:48:01.056Z,24.35
2022-08-17T18:50:35.706Z,24.34
2022-08-17T18:53:30.403Z,24.24
2022-08-17T18:56:27.246Z,24.19
2022-08-17T18:59:16.770Z,24.11
2022-08-17T19:01:53.333Z,24.08
2022-08-17T19:04:55.745Z,24.00
2022-08-17T19:07:22.279Z,24.00
2022-08-17T19:09:53.916Z,23.99
2022-08-17T19:12:30.074Z,23.89
2022-08-17T19:14:57.657Z,23.81
2022-08-17T19:17:30.828Z,23.77
2022-08-17T19:20:07.722Z,23.87
2022-08-17T19:22:47.083Z,23.82
2022-08-17T19:25:19.219Z,23.79
2022-08-17T19:27:57.446Z,23.82
2022-08-17T19:30:25.150Z,23.77
2022-08-17T19:32:53.060Z,23.71
2022-08-17T19:35:22.152Z,23.68
2022-08-17T19:38:01.876Z,23.55
2022-08-17T19:40:52.717Z,23.57
2022-08-17T19:43:48.271Z,23.48
2022-08-17T19:46:26.122Z,23.36
2022-08-17T19:49:03.359Z,23.35
2022-08-17T19:51:40.898Z,23.35
2022-08-17T19:54:20.363Z,23.22
2022-08-17T19:57:09.796Z,23.11
2022-08-17T20:00:06.928Z,23.02
2022-08-17T20:02:38.246Z,22.97
2022-08-17T20:05:15.489Z,22.87
2022-08-17T20:07:54.410Z,22.88
2022-08-17T20:10:54.563Z,22.75
2022-08-17T20:13:33.023Z,22.71
2022-08-17T20:16:01.624Z,22.64
2022-08-17T20:18:34.372Z,22.60
2022-08-17T20:21:10.568Z,22.55
2022-08-17T20:23:54.261Z,22.43
2022-08-17T20:26:36.639Z,22.39
2022-08-17T20:29:37.194Z,22.30
2022-08-17T20:32:13.740Z,22.28
2022-08-17T20:34:40.592Z,22.28
2022-08-17T20:37:13.525Z,22.26
2022-08-17T20:39:46.814Z,22.24
2022-08-17T20:42:19.909Z,22.16
2022-08-17T20:44:52.720Z,22.09
2022-08-17T20:47:27.518Z,22.05
2022-08-17T20:50:04.314Z,21.96
2022-08-17T20:52:51.216Z,21.96
2022-08-17T20:55:51.409Z,21.87
2022-08-17T20:58:30.645Z,21.85
2022-08-17T21:00:57.814Z,21.77
2022-08-17T21:03:25.291Z,21.71
2022-08-17T21:06:00.612Z,21.66
2022-08-17T21:08:33.665Z,21.60
2022-08-17T21:11:21.838Z,21.56
2022-08-17T21:14:46.059Z,21.56
2022-08-17T21:17:29.616Z,21.48
2022-08-17T21:20:10.962Z,21.39
2022-08-17T21:22:57.595Z,21.32
2022-08-17T21:25:37.185Z,21.27
2022-08-17T21:28:30.049Z,21.24
2022-08-17T21:31:09.005Z,21.18
2022-08-17T21:33:38.523Z,21.16
2022-08-17T21:36:19.959Z,21.13
2022-08-17T21:38:57.395Z,21.03
2022-08-17T21:41:27.365Z,21.00
2022-08-17T21:44:30.539Z,20.95
2022-08-17T21:47:13.388Z,20.90
2022-08-17T21:49:40.083Z,20.88
2022-08-17T21:52:07.235Z,20.80
2022-08-17T21:54:36.241Z,20.79
2022-08-17T21:57:06.486Z,20.74
2022-08-17T21:59:37.728Z,20.71
2022-08-17T22:02:06.672Z,20.68
2022-08-17T22:04:35.188Z,20.67
2022-08-17T22:07:05.279Z,20.63
2022-08-17T22:09:43.706Z,20.60
2022-08-17T22:12:15.122Z,20.60
2022-08-17T22:14:53.118Z,20.53
2022-08-17T22:17:29.653Z,20.52
2022-08-17T22:20:09.651Z,20.46
2022-08-17T22:22:59.540Z,20.48
2022-08-17T22:25:27.833Z,20.44
2022-08-17T22:27:58.411Z,20.39
2022-08-17T22:30:39.821Z,20.38
2022-08-17T22:33:29.997Z,20.34
2022-08-17T22:36:29.073Z,20.31
2022-08-17T22:39:11.264Z,20.28
2022-08-17T22:41:48.002Z,20.29
2022-08-17T22:44:17.713Z,20.22
2022-08-17T22:46:56.143Z,20.23
2022-08-17T22:49:26.787Z,20.27
2022-08-17T22:52:32.043Z,20.24
2022-08-17T22:55:34.189Z,20.22
2022-08-17T22:58:20.439Z,20.22
2022-08-17T23:00:48.918Z,20.27
2022-08-17T23:03:17.912Z,20.26
2022-08-17T23:05:48.137Z,20.27
2022-08-17T23:08:15.488Z,20.34
2022-08-17T23:10:43.055Z,20.32
2022-08-17T23:13:11.897Z,20.32
2022-08-17T23:15:41.678Z,20.33
2022-08-17T23:18:08.383Z,20.36
2022-08-17T23:20:37.500Z,20.37
2022-08-17T23:23:06.815Z,20.36
2022-08-17T23:25:34.633Z,20.40
2022-08-17T23:28:03.086Z,20.49
2022-08-17T23:30:31.636Z,20.44
2022-08-17T23:33:05.330Z,20.41
2022-08-17T23:35:39.806Z,20.47
2022-08-17T23:38:09.700Z,20.53
2022-08-17T23:40:37.797Z,20.52
2022-08-17T23:43:11.419Z,20.50
2022-08-17T23:45:50.520Z,20.61
2022-08-17T23:48:35.146Z,20.59
2022-08-17T23:51:29.917Z,20.57
2022-08-17T23:54:12.625Z,20.55
2022-08-17T23:56:46.534Z,20.47
2022-08-17T23:59:20.239Z,20.46
